createdAt,value
2022-11-29T00:00:10.016Z,74.50
2022-11-29T00:00:41.950Z,78.65
2022-11-29T00:01:16.646Z,82.82
2022-11-29T00:01:51.000Z,80.57
2022-11-29T00:02:25.181Z,84.93
2022-11-29T00:02:59.084Z,85.78
2022-11-29T00:03:33.121Z,76.77
2022-11-29T00:04:05.392Z,80.75
2022-11-29T00:04:37.492Z,81.80
2022-11-29T00:05:11.874Z,85.55
2022-11-29T00:05:45.199Z,77.43
2022-11-29T00:06:29.956Z,74.00
2022-11-29T00:07:01.851Z,76.40
2022-11-29T00:07:34.789Z,83.72
2022-11-29T00:08:06.539Z,73.22
2022-11-29T00:08:38.986Z,78.95
2022-11-29T00:09:12.978Z,84.53
2022-11-29T00:09:44.792Z,73.68
2022-11-29T00:10:16.343Z,80.05
2022-11-29T00:10:50.928Z,78.28
2022-11-29T00:11:46.907Z,79.05
2022-11-29T00:12:20.630Z,72.28
2022-11-29T00:12:52.274Z,73.07
2022-11-29T00:13:27.953Z,76.47
2022-11-29T00:13:59.561Z,77.57
2022-11-29T00:14:31.303Z,80.43
2022-11-29T00:15:05.972Z,76.47
2022-11-29T00:15:39.316Z,75.78
2022-11-29T00:16:13.435Z,76.07
2022-11-29T00:16:52.939Z,76.45
2022-11-29T00:17:24.804Z,80.30
2022-11-29T00:17:59.368Z,80.65
2022-11-29T00:18:34.029Z,84.95
2022-11-29T00:19:10.652Z,82.80
2022-11-29T00:19:45.522Z,73.60
2022-11-29T00:20:17.215Z,83.75
2022-11-29T00:20:48.774Z,78.93
2022-11-29T00:21:23.299Z,82.50
2022-11-29T00:21:54.906Z,78.57
2022-11-29T00:22:26.521Z,82.53
2022-11-29T00:23:00.034Z,82.97
2022-11-29T00:23:35.184Z,82.18
2022-11-29T00:24:07.533Z,93.32
2022-11-29T00:24:39.581Z,99.35
2022-11-29T00:25:16.649Z,77.05
2022-11-29T00:25:48.420Z,117.00
2022-11-29T00:26:22.488Z,87.73
2022-11-29T00:26:54.041Z,209.50
2022-11-29T00:27:27.823Z,294.23
2022-11-29T00:28:00.513Z,169.25
2022-11-29T00:28:32.240Z,92.85
2022-11-29T00:29:04.268Z,81.72
2022-11-29T00:29:35.899Z,87.88
2022-11-29T00:30:07.995Z,88.57
2022-11-29T00:30:41.987Z,84.53
2022-11-29T00:31:37.076Z,271.88
2022-11-29T00:32:08.466Z,289.83
2022-11-29T00:32:40.138Z,171.48
2022-11-29T00:33:11.712Z,131.88
2022-11-29T00:33:43.346Z,336.73
2022-11-29T00:34:17.721Z,358.85
2022-11-29T00:34:49.491Z,269.98
2022-11-29T00:35:21.275Z,102.65
2022-11-29T00:35:52.697Z,131.35
2022-11-29T00:36:27.292Z,140.30
2022-11-29T00:36:58.927Z,104.43
2022-11-29T00:37:31.172Z,111.93
2022-11-29T00:38:02.577Z,242.93
2022-11-29T00:38:34.049Z,179.43
2022-11-29T00:39:11.964Z,175.25
2022-11-29T00:39:43.793Z,149.90
2022-11-29T00:40:15.497Z,108.15
2022-11-29T00:40:53.740Z,95.80
2022-11-29T00:42:15.523Z,95.97
2022-11-29T00:42:46.967Z,93.95
2022-11-29T00:43:18.600Z,93.93
2022-11-29T00:43:50.350Z,97.65
2022-11-29T00:44:24.183Z,90.18
2022-11-29T00:44:55.680Z,97.28
2022-11-29T00:45:27.145Z,104.63
2022-11-29T00:45:58.804Z,115.22
2022-11-29T00:46:30.573Z,109.25
2022-11-29T00:47:04.797Z,101.47
2022-11-29T00:47:36.396Z,103.18
2022-11-29T00:48:08.308Z,97.85
2022-11-29T00:48:44.229Z,133.77
2022-11-29T00:49:15.855Z,101.15
2022-11-29T00:49:47.457Z,174.40
2022-11-29T00:50:19.133Z,81.43
2022-11-29T00:50:51.012Z,94.25
2022-11-29T00:51:22.588Z,96.50
2022-11-29T00:51:58.647Z,92.38
2022-11-29T00:52:30.508Z,81.70
2022-11-29T00:53:02.123Z,83.13
2022-11-29T00:53:37.767Z,82.07
2022-11-29T00:54:09.434Z,88.37
2022-11-29T00:54:41.568Z,83.75
2022-11-29T00:55:13.472Z,144.65
2022-11-29T00:55:47.553Z,89.43
2022-11-29T00:56:19.127Z,88.85
2022-11-29T00:56:53.472Z,100.65
2022-11-29T00:57:24.920Z,91.40
2022-11-29T00:57:56.400Z,92.90
2022-11-29T00:58:28.343Z,87.45
2022-11-29T00:58:59.745Z,89.82
2022-11-29T00:59:31.379Z,86.87
2022-11-29T01:00:04.775Z,85.63
2022-11-29T01:00:36.299Z,88.47
2022-11-29T01:01:10.664Z,96.00
2022-11-29T01:01:45.433Z,135.05
2022-11-29T01:02:17.126Z,94.60
2022-11-29T01:02:51.300Z,92.18
2022-11-29T01:03:25.596Z,95.80
2022-11-29T01:03:57.504Z,103.88
2022-11-29T01:04:29.014Z,142.82
2022-11-29T01:05:00.668Z,164.57
2022-11-29T01:05:34.551Z,87.32
2022-11-29T01:06:11.462Z,85.68
2022-11-29T01:06:43.175Z,90.93
2022-11-29T01:07:14.603Z,97.97
2022-11-29T01:07:46.339Z,86.13
2022-11-29T01:08:19.359Z,84.45
2022-11-29T01:08:50.856Z,89.45
2022-11-29T01:09:22.644Z,113.85
2022-11-29T01:09:57.260Z,128.77
2022-11-29T01:10:29.141Z,106.97
2022-11-29T01:11:08.311Z,83.97
2022-11-29T01:11:39.830Z,87.18
2022-11-29T01:12:15.644Z,87.28
2022-11-29T01:12:48.983Z,85.07
2022-11-29T01:13:23.026Z,86.57
2022-11-29T01:13:58.443Z,87.00
2022-11-29T01:14:32.286Z,84.38
2022-11-29T01:15:05.561Z,83.63
2022-11-29T01:15:37.702Z,95.80
2022-11-29T01:16:10.180Z,94.20
2022-11-29T01:16:41.771Z,91.47
2022-11-29T01:17:13.472Z,127.70
2022-11-29T01:17:44.971Z,88.28
2022-11-29T01:18:16.675Z,82.70
2022-11-29T01:18:48.241Z,105.80
2022-11-29T01:19:19.697Z,93.05
2022-11-29T01:19:54.184Z,85.43
2022-11-29T01:20:26.333Z,85.05
2022-11-29T01:21:03.794Z,88.60
2022-11-29T01:21:35.485Z,78.40
2022-11-29T01:22:09.129Z,82.90
2022-11-29T01:22:43.542Z,88.43
2022-11-29T01:23:17.262Z,77.13
2022-11-29T01:23:51.068Z,80.35
2022-11-29T01:24:24.973Z,81.65
2022-11-29T01:25:00.280Z,81.07
2022-11-29T01:25:32.139Z,76.72
2022-11-29T01:26:09.140Z,79.20
2022-11-29T01:26:43.555Z,77.55
2022-11-29T01:27:17.705Z,70.93
2022-11-29T01:27:49.232Z,73.22
2022-11-29T01:28:20.823Z,80.03
2022-11-29T01:28:54.369Z,72.22
2022-11-29T01:29:26.084Z,73.70
2022-11-29T01:29:57.888Z,92.93
2022-11-29T01:30:29.650Z,74.53
2022-11-29T01:31:13.205Z,72.65
2022-11-29T01:31:44.940Z,73.63
2022-11-29T01:32:16.431Z,69.85
2022-11-29T01:32:48.088Z,76.23
2022-11-29T01:33:20.142Z,88.97
2022-11-29T01:33:56.362Z,96.03
2022-11-29T01:34:28.325Z,71.40
2022-11-29T01:34:59.990Z,76.78
2022-11-29T01:35:33.657Z,86.43
2022-11-29T01:36:07.399Z,75.70
2022-11-29T01:36:39.010Z,75.82
2022-11-29T01:37:10.512Z,70.13
2022-11-29T01:37:42.286Z,80.80
2022-11-29T01:38:17.803Z,76.17
2022-11-29T01:38:49.691Z,78.10
2022-11-29T01:39:21.626Z,79.40
2022-11-29T01:39:56.155Z,74.15
2022-11-29T01:40:27.633Z,75.10
2022-11-29T01:41:12.774Z,77.90
2022-11-29T01:41:44.232Z,80.20
2022-11-29T01:43:18.063Z,80.82
2022-11-29T01:44:00.292Z,75.20
2022-11-29T01:44:31.650Z,85.60
2022-11-29T01:45:19.015Z,76.45
2022-11-29T01:45:50.911Z,66.68
2022-11-29T01:46:22.510Z,83.18
2022-11-29T01:46:54.893Z,73.40
2022-11-29T01:47:29.861Z,79.05
2022-11-29T01:48:01.764Z,78.97
2022-11-29T01:48:33.581Z,87.55
2022-11-29T01:49:10.871Z,72.25
2022-11-29T01:49:45.544Z,79.75
2022-11-29T01:50:17.393Z,80.60
2022-11-29T01:50:49.236Z,76.78
2022-11-29T01:51:21.753Z,79.28
2022-11-29T01:51:59.561Z,84.85
2022-11-29T01:52:33.497Z,79.57
2022-11-29T01:53:05.943Z,80.50
2022-11-29T01:53:38.381Z,73.57
2022-11-29T01:54:12.152Z,73.55
2022-11-29T01:54:49.741Z,72.82
2022-11-29T01:55:21.772Z,77.07
2022-11-29T01:56:01.185Z,75.90
2022-11-29T01:56:37.016Z,74.38
2022-11-29T01:57:10.351Z,72.90
2022-11-29T01:57:43.761Z,74.38
2022-11-29T01:58:15.386Z,72.50
2022-11-29T01:58:50.519Z,83.22
2022-11-29T01:59:26.937Z,81.85
2022-11-29T02:00:06.559Z,78.75
2022-11-29T02:00:40.922Z,72.38
2022-11-29T02:01:13.931Z,65.82
2022-11-29T02:01:45.513Z,74.03
2022-11-29T02:02:28.641Z,75.20
2022-11-29T02:03:07.919Z,76.05
2022-11-29T02:03:39.857Z,64.32
2022-11-29T02:04:12.257Z,78.57
2022-11-29T02:04:48.739Z,75.55
2022-11-29T02:05:21.532Z,75.05
2022-11-29T02:05:56.342Z,66.15
2022-11-29T02:06:30.617Z,73.20
2022-11-29T02:07:03.157Z,75.93
2022-11-29T02:07:35.578Z,78.10
2022-11-29T02:08:09.717Z,70.70
2022-11-29T02:08:43.299Z,69.80
2022-11-29T02:09:19.728Z,76.78
2022-11-29T02:09:55.304Z,70.03
2022-11-29T02:11:05.239Z,65.55
2022-11-29T02:11:57.212Z,60.35
2022-11-29T02:12:49.835Z,60.50
2022-11-29T02:13:33.571Z,60.72
2022-11-29T02:14:25.892Z,64.45
2022-11-29T02:15:17.780Z,55.03
2022-11-29T02:16:05.379Z,61.75
2022-11-29T02:16:58.548Z,64.00
2022-11-29T02:17:48.433Z,64.88
2022-11-29T02:18:30.606Z,63.97
2022-11-29T02:19:33.747Z,58.42
2022-11-29T02:20:38.182Z,63.58
2022-11-29T02:21:53.074Z,60.63
2022-11-29T02:22:33.030Z,60.40
2022-11-29T02:23:39.417Z,55.97
2022-11-29T02:24:48.455Z,64.27
2022-11-29T02:25:56.744Z,58.75
2022-11-29T02:26:56.281Z,53.50
2022-11-29T02:27:36.333Z,59.97
2022-11-29T02:28:36.382Z,59.45
2022-11-29T02:29:38.847Z,60.63
2022-11-29T02:30:50.983Z,58.13
2022-11-29T02:31:59.559Z,57.42
2022-11-29T02:33:17.379Z,59.28
2022-11-29T02:34:07.041Z,54.90
2022-11-29T02:34:50.498Z,61.40
2022-11-29T02:35:48.018Z,60.65
2022-11-29T02:36:59.172Z,58.70
2022-11-29T02:37:30.645Z,60.20
2022-11-29T02:38:08.178Z,68.63
2022-11-29T02:39:03.012Z,62.22
2022-11-29T02:39:59.085Z,63.85
2022-11-29T02:40:48.674Z,66.80
2022-11-29T02:41:41.557Z,58.55
2022-11-29T02:42:54.089Z,60.22
2022-11-29T02:43:42.467Z,51.03
2022-11-29T02:44:55.798Z,60.55
2022-11-29T02:46:03.763Z,57.70
2022-11-29T02:46:57.142Z,58.22
2022-11-29T02:48:08.075Z,57.30
2022-11-29T02:48:55.545Z,52.60
2022-11-29T02:49:50.441Z,54.88
2022-11-29T02:51:15.753Z,58.17
2022-11-29T02:52:02.985Z,51.22
2022-11-29T02:53:06.401Z,58.28
2022-11-29T02:53:48.179Z,54.47
2022-11-29T02:54:51.068Z,62.72
2022-11-29T02:55:38.138Z,56.47
2022-11-29T02:56:29.314Z,55.50
2022-11-29T02:57:24.203Z,61.47
2022-11-29T02:58:23.775Z,58.35
2022-11-29T02:59:25.222Z,53.28
2022-11-29T03:00:03.925Z,60.83
2022-11-29T03:00:43.803Z,62.35
2022-11-29T03:01:44.882Z,47.95
2022-11-29T03:02:19.006Z,61.50
2022-11-29T03:03:03.263Z,59.47
2022-11-29T03:03:49.726Z,62.95
2022-11-29T03:04:33.022Z,58.10
2022-11-29T03:05:17.266Z,56.63
2022-11-29T03:06:03.185Z,59.00
2022-11-29T03:07:02.950Z,57.17
2022-11-29T03:07:58.722Z,58.88
2022-11-29T03:08:47.015Z,53.58
2022-11-29T03:09:32.218Z,62.65
2022-11-29T03:10:08.972Z,55.60
2022-11-29T03:10:59.379Z,72.00
2022-11-29T03:11:52.998Z,58.45
2022-11-29T03:12:46.310Z,63.47
2022-11-29T03:13:29.506Z,57.90
2022-11-29T03:14:17.084Z,62.83
2022-11-29T03:15:02.439Z,72.47
2022-11-29T03:15:39.405Z,62.97
2022-11-29T03:16:29.658Z,73.35
2022-11-29T03:17:16.631Z,54.65
2022-11-29T03:18:03.573Z,55.33
2022-11-29T03:18:59.993Z,62.08
2022-11-29T03:19:49.122Z,77.63
2022-11-29T03:20:35.286Z,56.78
2022-11-29T03:21:35.235Z,57.45
2022-11-29T03:22:15.066Z,54.95
2022-11-29T03:23:09.900Z,82.13
2022-11-29T03:23:48.046Z,57.20
2022-11-29T03:24:27.907Z,68.55
2022-11-29T03:25:08.411Z,57.15
2022-11-29T03:25:44.419Z,61.17
2022-11-29T03:26:32.516Z,55.83
2022-11-29T03:27:11.529Z,110.90
2022-11-29T03:28:04.171Z,117.22
2022-11-29T03:28:45.967Z,122.68
2022-11-29T03:29:29.494Z,56.97
2022-11-29T03:30:05.021Z,53.83
2022-11-29T03:30:40.527Z,62.67
2022-11-29T03:31:29.958Z,60.85
2022-11-29T03:32:20.205Z,56.22
2022-11-29T03:33:03.727Z,94.70
2022-11-29T03:33:56.849Z,120.65
2022-11-29T03:34:37.434Z,82.32
2022-11-29T03:35:20.338Z,73.43
2022-11-29T03:36:09.206Z,72.07
2022-11-29T03:37:03.614Z,63.45
2022-11-29T03:37:55.526Z,47.08
2022-11-29T03:38:40.705Z,45.47
2022-11-29T03:39:20.852Z,45.70
2022-11-29T03:39:59.696Z,45.55
2022-11-29T03:40:45.395Z,50.57
2022-11-29T03:41:39.283Z,50.38
2022-11-29T03:42:30.928Z,47.97
2022-11-29T03:43:08.963Z,45.97
2022-11-29T03:43:46.917Z,45.97
2022-11-29T03:44:31.735Z,43.28
2022-11-29T03:45:09.096Z,45.17
2022-11-29T03:45:51.808Z,48.65
2022-11-29T03:46:32.108Z,48.13
2022-11-29T03:47:09.917Z,49.08
2022-11-29T03:48:09.967Z,47.63
2022-11-29T03:48:48.811Z,50.20
2022-11-29T03:49:45.294Z,47.22
2022-11-29T03:50:23.053Z,50.50
2022-11-29T03:51:02.925Z,44.03
2022-11-29T03:51:49.585Z,40.65
2022-11-29T03:52:33.831Z,45.40
2022-11-29T03:53:13.122Z,57.70
2022-11-29T03:54:03.779Z,49.55
2022-11-29T03:54:51.630Z,46.17
2022-11-29T03:55:54.507Z,58.23
2022-11-29T03:56:35.770Z,48.47
2022-11-29T03:57:07.378Z,63.63
2022-11-29T03:57:50.713Z,74.20
2022-11-29T03:58:46.574Z,39.20
2022-11-29T03:59:39.272Z,58.10
2022-11-29T04:00:13.295Z,41.33
2022-11-29T04:00:47.404Z,51.10
2022-11-29T04:01:21.647Z,51.00
2022-11-29T04:02:26.971Z,47.70
2022-11-29T04:03:17.018Z,88.03
2022-11-29T04:04:06.568Z,46.78
2022-11-29T04:05:11.806Z,44.17
2022-11-29T04:06:13.841Z,42.42
2022-11-29T04:07:16.231Z,42.53
2022-11-29T04:07:57.434Z,69.75
2022-11-29T04:09:05.770Z,59.92
2022-11-29T04:10:12.207Z,58.53
2022-11-29T04:11:03.873Z,53.38
2022-11-29T04:12:03.986Z,62.38
2022-11-29T04:13:06.743Z,57.73
2022-11-29T04:14:03.126Z,45.95
2022-11-29T04:14:43.643Z,76.38
2022-11-29T04:15:48.983Z,95.10
2022-11-29T04:16:41.645Z,93.60
2022-11-29T04:17:50.611Z,94.28
2022-11-29T04:18:33.902Z,34.20
2022-11-29T04:19:25.676Z,47.00
2022-11-29T04:20:47.806Z,47.25
2022-11-29T04:21:37.870Z,38.55
2022-11-29T04:22:31.061Z,51.40
2022-11-29T04:23:39.499Z,60.40
2022-11-29T04:24:35.146Z,39.30
2022-11-29T04:25:28.908Z,58.08
2022-11-29T04:26:19.143Z,48.50
2022-11-29T04:26:56.770Z,102.32
2022-11-29T04:27:58.805Z,132.23
2022-11-29T04:28:57.575Z,67.82
2022-11-29T04:29:43.638Z,43.22
2022-11-29T04:30:24.901Z,49.40
2022-11-29T04:31:32.851Z,47.73
2022-11-29T04:32:39.661Z,46.72
2022-11-29T04:33:27.660Z,70.28
2022-11-29T04:33:58.935Z,54.70
2022-11-29T04:34:51.983Z,72.63
2022-11-29T04:37:05.881Z,104.05
2022-11-29T04:38:14.682Z,152.90
2022-11-29T04:38:53.351Z,47.50
2022-11-29T04:39:40.020Z,68.28
2022-11-29T04:40:43.047Z,52.73
2022-11-29T04:41:20.344Z,68.05
2022-11-29T04:42:00.850Z,132.02
2022-11-29T04:42:42.821Z,42.42
2022-11-29T04:43:35.890Z,71.70
2022-11-29T04:44:50.566Z,51.42
2022-11-29T04:45:53.842Z,75.47
2022-11-29T04:46:36.636Z,39.17
2022-11-29T04:47:21.976Z,85.22
2022-11-29T04:48:39.831Z,98.82
2022-11-29T04:49:45.927Z,39.07
2022-11-29T04:50:27.099Z,43.47
2022-11-29T04:51:01.150Z,45.20
2022-11-29T04:51:50.003Z,44.10
2022-11-29T04:52:47.753Z,49.55
2022-11-29T04:53:31.243Z,62.33
2022-11-29T04:54:13.107Z,48.78
2022-11-29T04:54:57.115Z,69.78
2022-11-29T04:55:31.386Z,44.63
2022-11-29T04:56:21.430Z,52.13
2022-11-29T04:57:01.725Z,59.17
2022-11-29T04:57:43.190Z,49.50
2022-11-29T04:58:24.260Z,54.97
2022-11-29T04:59:06.129Z,49.72
2022-11-29T04:59:46.668Z,48.92
2022-11-29T05:00:21.611Z,74.25
2022-11-29T05:01:03.966Z,81.85
2022-11-29T05:01:50.273Z,42.05
2022-11-29T05:02:43.598Z,35.08
2022-11-29T05:03:30.103Z,59.88
2022-11-29T05:04:20.056Z,36.70
2022-11-29T05:05:33.406Z,43.35
2022-11-29T05:06:16.706Z,35.53
2022-11-29T05:07:23.307Z,33.20
2022-11-29T05:08:07.629Z,36.20
2022-11-29T05:09:03.318Z,93.60
2022-11-29T05:10:00.430Z,48.92
2022-11-29T05:10:56.244Z,37.42
2022-11-29T05:12:05.024Z,43.92
2022-11-29T05:12:52.246Z,38.95
2022-11-29T05:13:30.445Z,34.77
2022-11-29T05:14:16.621Z,36.60
2022-11-29T05:15:02.350Z,38.47
2022-11-29T05:16:11.657Z,51.25
2022-11-29T05:16:47.898Z,74.05
2022-11-29T05:17:46.542Z,46.95
2022-11-29T05:18:49.354Z,46.95
2022-11-29T05:19:49.170Z,43.38
2022-11-29T05:20:34.396Z,35.28
2022-11-29T05:21:27.725Z,37.65
2022-11-29T05:22:02.259Z,37.70
2022-11-29T05:22:46.007Z,36.40
2022-11-29T05:23:54.785Z,43.75
2022-11-29T05:24:45.004Z,40.63
2022-11-29T05:25:39.870Z,37.55
2022-11-29T05:26:29.882Z,52.05
2022-11-29T05:27:27.007Z,34.38
2022-11-29T05:28:13.366Z,32.53
2022-11-29T05:28:58.589Z,36.15
2022-11-29T05:29:41.871Z,35.95
2022-11-29T05:30:19.510Z,239.37
2022-11-29T05:31:02.836Z,65.20
2022-11-29T05:31:42.933Z,36.72
2022-11-29T05:32:30.697Z,60.58
2022-11-29T05:33:13.727Z,44.30
2022-11-29T05:33:45.056Z,41.65
2022-11-29T05:34:48.724Z,41.72
2022-11-29T05:35:40.049Z,37.58
2022-11-29T05:36:17.306Z,34.38
2022-11-29T05:37:31.366Z,39.05
2022-11-29T05:38:23.897Z,31.17
2022-11-29T05:39:31.194Z,33.92
2022-11-29T05:40:32.181Z,36.45
2022-11-29T05:41:18.758Z,33.97
2022-11-29T05:42:23.549Z,89.53
2022-11-29T05:43:11.572Z,36.67
2022-11-29T05:44:03.543Z,38.05
2022-11-29T05:45:19.449Z,38.28
2022-11-29T05:45:59.170Z,195.77
2022-11-29T05:46:56.362Z,40.88
2022-11-29T05:47:40.134Z,41.00
2022-11-29T05:48:45.183Z,36.33
2022-11-29T05:49:44.633Z,97.03
2022-11-29T05:50:26.510Z,40.65
2022-11-29T05:51:19.779Z,56.72
2022-11-29T05:52:12.610Z,48.17
2022-11-29T05:52:55.413Z,37.38
2022-11-29T05:53:38.411Z,37.88
2022-11-29T05:54:42.149Z,37.92
2022-11-29T05:55:13.654Z,66.25
2022-11-29T05:56:03.002Z,59.63
2022-11-29T05:56:55.434Z,40.78
2022-11-29T05:58:01.739Z,34.45
2022-11-29T05:58:47.674Z,31.52
2022-11-29T05:59:23.201Z,36.75
2022-11-29T05:59:57.316Z,33.50
2022-11-29T06:00:52.836Z,45.97
2022-11-29T06:01:43.521Z,48.15
2022-11-29T06:02:29.208Z,34.35
2022-11-29T06:03:24.650Z,35.97
2022-11-29T06:04:04.111Z,31.37
2022-11-29T06:04:48.121Z,33.45
2022-11-29T06:05:49.728Z,32.25
2022-11-29T06:06:30.554Z,34.45
2022-11-29T06:07:20.483Z,40.88
2022-11-29T06:07:56.375Z,34.78
2022-11-29T06:08:54.746Z,69.82
2022-11-29T06:09:39.959Z,37.58
2022-11-29T06:10:26.366Z,31.70
2022-11-29T06:11:13.966Z,40.80
2022-11-29T06:11:50.143Z,36.57
2022-11-29T06:12:23.930Z,37.03
2022-11-29T06:13:04.049Z,48.33
2022-11-29T06:13:51.034Z,37.63
2022-11-29T06:14:22.840Z,36.50
2022-11-29T06:15:03.367Z,40.97
2022-11-29T06:15:57.592Z,34.58
2022-11-29T06:17:09.050Z,32.80
2022-11-29T06:17:40.623Z,68.13
2022-11-29T06:18:56.501Z,71.35
2022-11-29T06:19:59.240Z,33.97
2022-11-29T06:21:01.876Z,36.13
2022-11-29T06:21:48.366Z,37.40
2022-11-29T06:22:45.977Z,37.90
2022-11-29T06:23:43.555Z,29.70
2022-11-29T06:24:45.840Z,57.53
2022-11-29T06:25:37.958Z,83.07
2022-11-29T06:26:30.599Z,35.25
2022-11-29T06:27:07.665Z,33.83
2022-11-29T06:28:07.763Z,43.10
2022-11-29T06:28:57.531Z,28.80
2022-11-29T06:29:33.819Z,49.20
2022-11-29T06:30:12.099Z,39.42
2022-11-29T06:31:01.045Z,34.13
2022-11-29T06:31:39.366Z,28.58
2022-11-29T06:32:18.179Z,37.92
2022-11-29T06:33:07.923Z,38.33
2022-11-29T06:33:56.194Z,36.35
2022-11-29T06:34:40.251Z,33.50
2022-11-29T06:35:15.119Z,40.28
2022-11-29T06:35:49.692Z,37.63
2022-11-29T06:36:28.961Z,39.33
2022-11-29T06:37:13.813Z,40.67
2022-11-29T06:37:50.530Z,37.17
2022-11-29T06:38:28.958Z,39.03
2022-11-29T06:39:00.611Z,39.42
2022-11-29T06:39:32.360Z,38.70
2022-11-29T06:40:05.499Z,37.95
2022-11-29T06:40:37.154Z,34.03
2022-11-29T06:41:14.363Z,35.90
2022-11-29T06:41:47.088Z,34.87
2022-11-29T06:42:18.706Z,37.88
2022-11-29T06:42:50.223Z,39.53
2022-11-29T06:43:21.905Z,43.58
2022-11-29T06:43:55.792Z,41.22
2022-11-29T06:44:27.572Z,40.60
2022-11-29T06:44:59.228Z,37.60
2022-11-29T06:45:30.956Z,38.28
2022-11-29T06:46:15.425Z,42.08
2022-11-29T06:47:05.737Z,46.55
2022-11-29T06:47:55.152Z,41.40
2022-11-29T06:48:29.762Z,43.97
2022-11-29T06:49:16.688Z,40.47
2022-11-29T06:49:51.707Z,39.70
2022-11-29T06:50:48.850Z,41.08
2022-11-29T06:51:30.095Z,39.63
2022-11-29T06:52:12.634Z,37.05
2022-11-29T06:53:07.198Z,42.67
2022-11-29T06:54:04.058Z,39.42
2022-11-29T06:55:01.154Z,34.75
2022-11-29T06:55:47.717Z,33.53
2022-11-29T06:56:29.939Z,31.10
2022-11-29T06:57:19.882Z,37.25
2022-11-29T06:57:51.141Z,34.47
2022-11-29T06:59:02.814Z,35.58
2022-11-29T06:59:51.267Z,35.22
2022-11-29T07:00:28.844Z,34.08
2022-11-29T07:01:06.851Z,34.58
2022-11-29T07:01:45.792Z,31.15
2022-11-29T07:02:35.249Z,33.42
2022-11-29T07:03:25.786Z,35.00
2022-11-29T07:04:11.990Z,35.38
2022-11-29T07:04:52.467Z,33.90
2022-11-29T07:05:27.261Z,37.90
2022-11-29T07:05:58.760Z,36.13
2022-11-29T07:06:32.078Z,35.88
2022-11-29T07:07:03.892Z,33.20
2022-11-29T07:07:35.684Z,37.10
2022-11-29T07:08:14.943Z,37.95
2022-11-29T07:08:48.970Z,44.72
2022-11-29T07:09:25.631Z,37.87
2022-11-29T07:10:00.397Z,37.72
2022-11-29T07:10:34.774Z,59.20
2022-11-29T07:11:06.638Z,34.58
2022-11-29T07:11:38.503Z,44.20
2022-11-29T07:12:10.351Z,40.20
2022-11-29T07:12:41.973Z,36.15
2022-11-29T07:13:13.755Z,49.67
2022-11-29T07:13:45.508Z,93.90
2022-11-29T07:14:17.213Z,64.70
2022-11-29T07:14:49.011Z,63.90
2022-11-29T07:15:22.612Z,42.53
2022-11-29T07:16:06.734Z,40.05
2022-11-29T07:16:57.640Z,54.30
2022-11-29T07:17:59.383Z,56.95
2022-11-29T07:18:33.834Z,36.13
2022-11-29T07:19:26.787Z,31.73
2022-11-29T07:20:12.961Z,33.55
2022-11-29T07:21:16.002Z,27.63
2022-11-29T07:22:04.706Z,28.35
2022-11-29T07:22:47.925Z,35.10
2022-11-29T07:23:31.335Z,29.83
2022-11-29T07:24:18.897Z,31.50
2022-11-29T07:25:15.770Z,32.47
2022-11-29T07:26:19.022Z,26.73
2022-11-29T07:26:59.601Z,26.15
2022-11-29T07:28:02.152Z,23.42
2022-11-29T07:29:00.486Z,33.55
2022-11-29T07:30:00.577Z,27.42
2022-11-29T07:30:47.120Z,25.20
2022-11-29T07:32:00.533Z,33.57
2022-11-29T07:33:05.723Z,27.83
2022-11-29T07:34:03.039Z,26.23
2022-11-29T07:35:15.292Z,31.10
2022-11-29T07:36:14.182Z,21.17
2022-11-29T07:37:14.917Z,27.42
2022-11-29T07:38:13.906Z,24.55
2022-11-29T07:38:58.968Z,27.60
2022-11-29T07:40:01.304Z,29.13
2022-11-29T07:41:03.837Z,24.45
2022-11-29T07:41:51.157Z,26.03
2022-11-29T07:42:43.219Z,35.13
2022-11-29T07:43:45.326Z,29.77
2022-11-29T07:44:38.270Z,39.10
2022-11-29T07:45:23.931Z,34.25
2022-11-29T07:45:57.024Z,29.58
2022-11-29T07:46:29.159Z,31.65
2022-11-29T07:47:00.700Z,31.95
2022-11-29T07:47:35.788Z,34.60
2022-11-29T07:48:11.355Z,30.63
2022-11-29T07:48:42.843Z,40.00
2022-11-29T07:49:14.407Z,35.10
2022-11-29T07:49:45.855Z,44.15
2022-11-29T07:50:17.283Z,36.53
2022-11-29T07:50:49.050Z,32.60
2022-11-29T07:51:20.716Z,38.75
2022-11-29T07:51:54.345Z,37.80
2022-11-29T07:52:25.914Z,34.80
2022-11-29T07:52:57.833Z,33.92
2022-11-29T07:53:30.279Z,33.83
2022-11-29T07:54:02.035Z,33.77
2022-11-29T07:54:33.499Z,33.03
2022-11-29T07:55:05.611Z,31.38
2022-11-29T07:55:37.274Z,34.70
2022-11-29T07:56:09.687Z,35.70
2022-11-29T07:56:41.254Z,33.92
2022-11-29T07:57:12.776Z,35.05
2022-11-29T07:57:44.432Z,44.28
2022-11-29T07:58:19.092Z,53.67
2022-11-29T07:58:52.017Z,37.85
2022-11-29T07:59:23.480Z,57.70
2022-11-29T07:59:57.302Z,40.20
2022-11-29T08:00:28.915Z,36.05
2022-11-29T08:01:00.709Z,35.95
2022-11-29T08:03:38.958Z,26.50
2022-11-29T08:05:15.378Z,27.42
2022-11-29T08:07:58.586Z,25.38
2022-11-29T08:11:17.634Z,23.40
2022-11-29T08:13:46.574Z,28.27
2022-11-29T08:14:22.115Z,25.73
2022-11-29T08:15:06.063Z,38.67
2022-11-29T08:19:05.903Z,28.70
2022-11-29T08:20:04.630Z,31.30
2022-11-29T08:20:54.629Z,30.30
2022-11-29T08:23:58.038Z,25.50
2022-11-29T08:25:02.407Z,23.58
2022-11-29T08:26:08.646Z,27.25
2022-11-29T08:27:26.742Z,25.42
2022-11-29T08:28:56.764Z,22.65
2022-11-29T08:29:53.399Z,26.73
2022-11-29T08:30:54.926Z,23.88
2022-11-29T08:35:33.010Z,23.77
2022-11-29T08:36:54.618Z,25.98
2022-11-29T08:38:05.539Z,22.75
2022-11-29T08:42:28.672Z,18.58
2022-11-29T08:43:15.584Z,24.75
2022-11-29T08:45:14.012Z,25.85
2022-11-29T08:46:45.706Z,23.80
2022-11-29T08:51:41.275Z,20.90
2022-11-29T08:53:03.864Z,16.67
2022-11-29T08:54:31.942Z,18.05
2022-11-29T09:02:41.902Z,20.95
2022-11-29T09:08:23.635Z,27.08
2022-11-29T09:19:30.515Z,24.20
2022-11-29T09:27:10.038Z,20.58
2022-11-29T09:33:18.520Z,27.95
2022-11-29T09:36:40.044Z,26.60
2022-11-29T09:40:55.823Z,24.17
2022-11-29T09:52:14.268Z,25.52
2022-11-29T09:53:33.062Z,19.10
2022-11-29T10:01:07.111Z,18.88
2022-11-29T10:03:07.425Z,19.13
2022-11-29T10:05:01.873Z,20.03
2022-11-29T10:07:11.965Z,20.88
2022-11-29T10:08:41.034Z,19.75
2022-11-29T10:21:20.858Z,22.67
2022-11-29T10:23:36.488Z,25.43
2022-11-29T10:25:06.682Z,26.88
2022-11-29T10:26:51.944Z,20.55
2022-11-29T10:33:02.988Z,20.05
2022-11-29T10:36:17.563Z,20.00
2022-11-29T10:37:14.067Z,25.37
2022-11-29T10:38:30.787Z,21.67
2022-11-29T10:52:12.130Z,16.92
2022-11-29T10:53:00.216Z,17.87
2022-11-29T10:53:58.932Z,19.23
2022-11-29T11:17:51.502Z,22.08
2022-11-29T11:20:32.100Z,21.95
2022-11-29T11:22:23.818Z,21.50
2022-11-29T11:23:46.816Z,21.48
2022-11-29T11:25:12.220Z,20.83
2022-11-29T11:26:53.436Z,26.15
2022-11-29T11:33:02.752Z,22.15
2022-11-29T11:40:05.953Z,22.03
2022-11-29T11:41:16.951Z,26.58
2022-11-29T11:42:28.362Z,22.33
2022-11-29T11:43:40.924Z,23.55
2022-11-29T11:45:05.370Z,24.98
2022-11-29T11:50:25.065Z,22.63
2022-11-29T11:53:32.993Z,17.40
2022-11-29T11:55:09.163Z,21.43
2022-11-29T11:56:33.130Z,21.70
2022-11-29T12:01:05.227Z,21.10
2022-11-29T12:03:08.632Z,23.48
2022-11-29T12:05:59.117Z,22.98
2022-11-29T12:08:06.605Z,25.85
2022-11-29T12:09:02.765Z,23.48
2022-11-29T12:12:45.526Z,19.10
2022-11-29T12:18:01.990Z,20.08
2022-11-29T12:21:21.260Z,29.00
2022-11-29T12:25:49.878Z,23.50
2022-11-29T12:27:22.296Z,23.53
2022-11-29T12:28:53.467Z,22.02
2022-11-29T12:30:17.605Z,29.05
2022-11-29T12:32:16.298Z,24.45
2022-11-29T12:42:52.185Z,20.85
2022-11-29T12:46:17.990Z,18.08
2022-11-29T12:48:09.388Z,22.90
2022-11-29T12:51:52.787Z,21.42
2022-11-29T12:53:56.793Z,24.33
2022-11-29T12:56:33.363Z,25.40
2022-11-29T13:10:13.637Z,30.75
2022-11-29T13:20:17.164Z,21.60
2022-11-29T13:24:07.299Z,19.45
2022-11-29T13:25:34.041Z,22.02
2022-11-29T13:27:08.931Z,27.70
2022-11-29T13:28:43.486Z,19.60
2022-11-29T13:32:18.094Z,21.20
2022-11-29T13:45:24.001Z,25.60
2022-11-29T13:46:51.808Z,22.02
2022-11-29T13:48:53.540Z,22.27
2022-11-29T14:18:26.558Z,15.45
2022-11-29T14:19:33.698Z,17.67
2022-11-29T14:21:01.867Z,17.83
2022-11-29T14:27:08.410Z,17.90
2022-11-29T14:32:14.695Z,14.45
2022-11-29T14:35:42.338Z,13.50
2022-11-29T14:39:44.459Z,14.15
2022-11-29T14:42:11.229Z,21.10